KHKS/HKS METAR and TAF weather

Enter ICAO airport designator
Station Type Date Time Source
KHKS METAR 2020/07/11 23:53 UTC NOAA

KHKS 112353Z 30006KT 10SM CLR 32/24 A2995 RMK AO2 SLP133 T03170244 10344 20317 55008


Station Type Date Time Source
KHKS Decoded METAR 2020/07/11 23:53 UTC NOAA

HAWKINS FIELD, MS, United States (KHKS) 32-20N 090-13W 108M
Jul 11, 2020 - 07:53 PM EDT / 2020.07.11 2353 UTC
Wind: from the WNW (300 degrees) at 7 MPH (6 KT):0
Visibility: 10 mile(s):0
Sky conditions: clear
Temperature: 89.1 F (31.7 C)
Heat index: 100.2 F (37.9 C):1
Dew Point: 75.9 F (24.4 C)
Relative Humidity: 65%
Pressure (altimeter): 29.95 in. Hg (1014 hPa)
Pressure tendency: 0.02 inches (0.8 hPa) lower than three hours ago
ob: KHKS 112353Z 30006KT 10SM CLR 32/24 A2995 RMK AO2 SLP133 T03170244 10344 20317 55008
cycle: 0

Station Type Date Time Source
KHKS TAF 2020/07/11 18:21 UTC NOAA

TAF KHKS 111720Z 1118/1218 00000KT P6SM FEW035
FM121400 24004KT P6SM OVC250

Example: see airport list